sensor_id;sensor_type;location;lat;lon;timestamp;noise_LAeq;noise_LA_min;noise_LA_max;noise_LA01;noise_LA95
48967;Laerm;46511;53.148;8.204;2023-12-07T00:01:38;48.87;39.70;63.61;;
48967;Laerm;46511;53.148;8.204;2023-12-07T00:04:09;51.46;39.81;67.08;;
48967;Laerm;46511;53.148;8.204;2023-12-07T00:06:40;41.99;39.34;46.05;;
48967;Laerm;46511;53.148;8.204;2023-12-07T00:09:07;42.70;39.46;47.04;;
48967;Laerm;46511;53.148;8.204;2023-12-07T00:11:38;42.83;39.81;47.16;;
48967;Laerm;46511;53.148;8.204;2023-12-07T00:14:09;42.37;39.81;50.98;;
48967;Laerm;46511;53.148;8.204;2023-12-07T00:16:41;42.84;39.92;47.44;;
48967;Laerm;46511;53.148;8.204;2023-12-07T00:19:12;42.45;40.03;45.11;;
48967;Laerm;46511;53.148;8.204;2023-12-07T00:21:43;42.65;39.58;48.40;;
48967;Laerm;46511;53.148;8.204;2023-12-07T00:24:15;42.24;39.70;48.20;;
48967;Laerm;46511;53.148;8.204;2023-12-07T00:26:46;43.00;40.43;50.10;;
48967;Laerm;46511;53.148;8.204;2023-12-07T00:29:17;42.40;39.68;47.86;;
48967;Laerm;46511;53.148;8.204;2023-12-07T00:31:49;42.17;39.46;44.62;;
48967;Laerm;46511;53.148;8.204;2023-12-07T00:34:20;43.45;40.13;51.05;;
48967;Laerm;46511;53.148;8.204;2023-12-07T00:36:52;42.72;39.92;50.27;;
48967;Laerm;46511;53.148;8.204;2023-12-07T00:39:23;42.49;39.81;46.28;;
48967;Laerm;46511;53.148;8.204;2023-12-07T00:41:54;42.09;39.46;48.55;;
48967;Laerm;46511;53.148;8.204;2023-12-07T00:44:25;42.23;39.58;47.88;;
48967;Laerm;46511;53.148;8.204;2023-12-07T00:46:52;42.88;39.92;50.13;;
48967;Laerm;46511;53.148;8.204;2023-12-07T00:49:23;42.62;40.23;51.35;;
48967;Laerm;46511;53.148;8.204;2023-12-07T00:51:54;42.51;39.58;57.96;;
48967;Laerm;46511;53.148;8.204;2023-12-07T00:54:26;48.65;39.81;77.16;;
48967;Laerm;46511;53.148;8.204;2023-12-07T00:56:57;42.77;40.03;46.25;;
48967;Laerm;46511;53.148;8.204;2023-12-07T00:59:29;42.31;39.70;45.14;;
48967;Laerm;46511;53.148;8.204;2023-12-07T01:02:05;42.80;39.58;53.38;;
48967;Laerm;46511;53.148;8.204;2023-12-07T01:04:36;41.84;39.21;46.35;;
48967;Laerm;46511;53.148;8.204;2023-12-07T01:07:03;42.29;39.46;48.07;;
48967;Laerm;46511;53.148;8.204;2023-12-07T01:09:34;41.92;39.46;45.48;;
48967;Laerm;46511;53.148;8.204;2023-12-07T01:12:02;41.90;39.08;44.27;;
48967;Laerm;46511;53.148;8.204;2023-12-07T01:14:34;42.31;39.58;46.15;;
48967;Laerm;46511;53.148;8.204;2023-12-07T01:17:05;42.41;39.92;45.42;;
48967;Laerm;46511;53.148;8.204;2023-12-07T01:19:37;42.61;39.46;50.76;;
48967;Laerm;46511;53.148;8.204;2023-12-07T01:22:08;47.73;39.81;62.48;;
48967;Laerm;46511;53.148;8.204;2023-12-07T01:24:40;43.76;40.33;56.79;;
48967;Laerm;46511;53.148;8.204;2023-12-07T01:27:11;45.73;41.14;52.33;;
48967;Laerm;46511;53.148;8.204;2023-12-07T01:29:42;42.75;37.70;47.22;;
48967;Laerm;46511;53.148;8.204;2023-12-07T01:32:13;42.96;40.33;46.97;;
48967;Laerm;46511;53.148;8.204;2023-12-07T01:34:45;42.62;39.92;46.78;;
48967;Laerm;46511;53.148;8.204;2023-12-07T01:37:16;43.53;40.98;49.72;;
48967;Laerm;46511;53.148;8.204;2023-12-07T01:39:48;42.82;39.92;50.68;;
48967;Laerm;46511;53.148;8.204;2023-12-07T01:42:19;42.96;40.43;46.35;;
48967;Laerm;46511;53.148;8.204;2023-12-07T01:44:50;42.98;40.13;54.61;;
48967;Laerm;46511;53.148;8.204;2023-12-07T01:47:22;43.66;40.03;49.83;;
48967;Laerm;46511;53.148;8.204;2023-12-07T01:49:53;42.62;39.81;47.98;;
48967;Laerm;46511;53.148;8.204;2023-12-07T01:52:27;42.71;40.13;50.98;;
48967;Laerm;46511;53.148;8.204;2023-12-07T01:55:00;42.42;40.13;47.88;;
48967;Laerm;46511;53.148;8.204;2023-12-07T01:57:27;42.70;40.33;45.83;;
48967;Laerm;46511;53.148;8.204;2023-12-07T01:59:58;57.41;40.89;67.13;;
48967;Laerm;46511;53.148;8.204;2023-12-07T02:02:31;42.96;40.03;45.63;;
48967;Laerm;46511;53.148;8.204;2023-12-07T02:05:02;43.61;41.06;46.78;;
48967;Laerm;46511;53.148;8.204;2023-12-07T02:07:35;47.92;41.14;60.76;;
48967;Laerm;46511;53.148;8.204;2023-12-07T02:10:07;43.64;40.89;48.92;;
48967;Laerm;46511;53.148;8.204;2023-12-07T02:12:39;43.73;41.53;51.45;;
48967;Laerm;46511;53.148;8.204;2023-12-07T02:15:10;42.94;40.43;46.80;;
48967;Laerm;46511;53.148;8.204;2023-12-07T02:18:00;54.94;40.53;66.64;;
48967;Laerm;46511;53.148;8.204;2023-12-07T02:20:39;50.72;39.81;64.02;;
48967;Laerm;46511;53.148;8.204;2023-12-07T02:23:13;43.02;40.53;48.45;;
48967;Laerm;46511;53.148;8.204;2023-12-07T02:28:48;43.31;40.23;49.03;;
48967;Laerm;46511;53.148;8.204;2023-12-07T02:31:19;43.16;40.54;49.49;;
48967;Laerm;46511;53.148;8.204;2023-12-07T02:33:50;43.68;41.14;56.30;;
48967;Laerm;46511;53.148;8.204;2023-12-07T02:36:19;50.39;40.80;62.78;;
48967;Laerm;46511;53.148;8.204;2023-12-07T02:38:55;44.22;41.96;50.44;;
48967;Laerm;46511;53.148;8.204;2023-12-07T02:41:27;43.14;40.43;48.28;;
48967;Laerm;46511;53.148;8.204;2023-12-07T02:43:59;46.76;41.22;62.29;;
48967;Laerm;46511;53.148;8.204;2023-12-07T02:46:30;47.05;41.46;62.37;;
48967;Laerm;46511;53.148;8.204;2023-12-07T02:49:02;43.90;41.22;52.63;;
48967;Laerm;46511;53.148;8.204;2023-12-07T02:51:34;55.67;41.38;69.03;;
48967;Laerm;46511;53.148;8.204;2023-12-07T02:54:05;44.20;42.22;52.86;;
48967;Laerm;46511;53.148;8.204;2023-12-07T02:56:37;44.96;42.03;54.78;;
48967;Laerm;46511;53.148;8.204;2023-12-07T02:59:08;52.94;41.68;63.92;;
48967;Laerm;46511;53.148;8.204;2023-12-07T03:01:39;44.67;42.03;55.95;;
48967;Laerm;46511;53.148;8.204;2023-12-07T03:04:06;43.62;40.98;49.85;;
48967;Laerm;46511;53.148;8.204;2023-12-07T03:06:37;47.07;41.38;58.56;;
48967;Laerm;46511;53.148;8.204;2023-12-07T03:09:08;43.65;41.14;49.39;;
48967;Laerm;46511;53.148;8.204;2023-12-07T03:11:40;51.30;41.68;66.56;;
48967;Laerm;46511;53.148;8.204;2023-12-07T03:14:11;53.97;41.14;69.19;;
48967;Laerm;46511;53.148;8.204;2023-12-07T03:16:43;43.65;41.06;50.21;;
48967;Laerm;46511;53.148;8.204;2023-12-07T03:19:14;44.12;41.68;52.13;;
48967;Laerm;46511;53.148;8.204;2023-12-07T03:21:45;43.90;41.22;46.91;;
48967;Laerm;46511;53.148;8.204;2023-12-07T03:24:17;48.12;41.46;61.53;;
48967;Laerm;46511;53.148;8.204;2023-12-07T03:26:48;44.37;41.06;48.88;;
48967;Laerm;46511;53.148;8.204;2023-12-07T03:29:19;47.95;41.22;62.24;;
48967;Laerm;46511;53.148;8.204;2023-12-07T03:31:51;43.09;40.71;45.66;;
48967;Laerm;46511;53.148;8.204;2023-12-07T03:34:22;42.96;40.53;48.87;;
48967;Laerm;46511;53.148;8.204;2023-12-07T03:36:53;47.96;40.13;61.93;;
48967;Laerm;46511;53.148;8.204;2023-12-07T03:39:25;43.50;41.06;46.95;;
48967;Laerm;46511;53.148;8.204;2023-12-07T03:41:57;43.21;40.43;46.02;;
48967;Laerm;46511;53.148;8.204;2023-12-07T03:44:28;44.01;41.61;52.10;;
48967;Laerm;46511;53.148;8.204;2023-12-07T03:47:00;44.28;41.75;52.36;;
48967;Laerm;46511;53.148;8.204;2023-12-07T03:49:32;50.91;41.38;67.38;;
48967;Laerm;46511;53.148;8.204;2023-12-07T03:52:03;43.71;40.98;50.92;;
48967;Laerm;46511;53.148;8.204;2023-12-07T03:54:35;53.33;41.46;74.18;;
48967;Laerm;46511;53.148;8.204;2023-12-07T03:57:06;48.72;40.98;68.61;;
48967;Laerm;46511;53.148;8.204;2023-12-07T03:59:37;46.37;41.06;61.33;;
48967;Laerm;46511;53.148;8.204;2023-12-07T04:02:09;43.68;41.38;46.13;;
48967;Laerm;46511;53.148;8.204;2023-12-07T04:04:40;43.71;41.38;58.02;;
48967;Laerm;46511;53.148;8.204;2023-12-07T04:07:11;46.51;41.46;58.62;;
48967;Laerm;46511;53.148;8.204;2023-12-07T04:09:42;48.54;41.46;63.05;;
48967;Laerm;46511;53.148;8.204;2023-12-07T04:12:14;43.62;41.46;46.82;;
48967;Laerm;46511;53.148;8.204;2023-12-07T04:14:45;43.26;41.53;45.42;;
48967;Laerm;46511;53.148;8.204;2023-12-07T04:17:17;43.38;40.89;45.66;;
48967;Laerm;46511;53.148;8.204;2023-12-07T04:19:48;48.63;41.46;63.06;;
48967;Laerm;46511;53.148;8.204;2023-12-07T04:22:20;50.99;41.75;67.42;;
48967;Laerm;46511;53.148;8.204;2023-12-07T04:24:51;50.60;42.03;65.30;;
48967;Laerm;46511;53.148;8.204;2023-12-07T04:27:22;43.50;41.22;50.43;;
48967;Laerm;46511;53.148;8.204;2023-12-07T04:29:54;50.04;41.46;65.35;;
48967;Laerm;46511;53.148;8.204;2023-12-07T04:32:25;43.35;41.22;44.90;;
48967;Laerm;46511;53.148;8.204;2023-12-07T04:34:57;44.07;41.82;52.95;;
48967;Laerm;46511;53.148;8.204;2023-12-07T04:37:28;52.16;42.16;66.03;;
48967;Laerm;46511;53.148;8.204;2023-12-07T04:39:59;43.91;41.96;48.39;;
48967;Laerm;46511;53.148;8.204;2023-12-07T04:42:31;48.82;42.47;62.31;;
48967;Laerm;46511;53.148;8.204;2023-12-07T04:45:03;44.31;42.35;48.12;;
48967;Laerm;46511;53.148;8.204;2023-12-07T04:47:34;51.30;42.41;65.01;;
48967;Laerm;46511;53.148;8.204;2023-12-07T04:50:06;44.24;42.13;47.76;;
48967;Laerm;46511;53.148;8.204;2023-12-07T04:52:38;44.33;42.03;48.85;;
48967;Laerm;46511;53.148;8.204;2023-12-07T04:55:09;45.16;43.19;48.10;;
48967;Laerm;46511;53.148;8.204;2023-12-07T04:57:40;48.03;43.04;62.25;;
48967;Laerm;46511;53.148;8.204;2023-12-07T05:00:12;52.08;42.82;69.29;;
48967;Laerm;46511;53.148;8.204;2023-12-07T05:02:44;49.74;42.71;63.13;;
48967;Laerm;46511;53.148;8.204;2023-12-07T05:05:15;44.35;42.47;47.88;;
48967;Laerm;46511;53.148;8.204;2023-12-07T05:07:47;55.04;42.35;67.91;;
48967;Laerm;46511;53.148;8.204;2023-12-07T05:10:18;48.38;43.39;60.35;;
48967;Laerm;46511;53.148;8.204;2023-12-07T05:12:49;53.66;43.14;66.13;;
48967;Laerm;46511;53.148;8.204;2023-12-07T05:15:21;55.18;43.58;67.88;;
48967;Laerm;46511;53.148;8.204;2023-12-07T05:17:52;45.61;43.49;52.56;;
48967;Laerm;46511;53.148;8.204;2023-12-07T05:20:23;51.96;43.81;65.12;;
48967;Laerm;46511;53.148;8.204;2023-12-07T05:22:56;51.68;43.86;65.81;;
48967;Laerm;46511;53.148;8.204;2023-12-07T05:25:28;50.73;44.35;60.85;;
48967;Laerm;46511;53.148;8.204;2023-12-07T05:27:59;47.02;43.58;57.13;;
48967;Laerm;46511;53.148;8.204;2023-12-07T05:30:30;50.42;43.58;64.42;;
48967;Laerm;46511;53.148;8.204;2023-12-07T05:33:02;50.30;43.44;64.56;;
48967;Laerm;46511;53.148;8.204;2023-12-07T05:35:34;59.75;43.34;70.16;;
48967;Laerm;46511;53.148;8.204;2023-12-07T05:38:05;55.86;43.54;65.99;;
48967;Laerm;46511;53.148;8.204;2023-12-07T05:40:37;54.21;43.58;68.48;;
48967;Laerm;46511;53.148;8.204;2023-12-07T05:43:08;51.92;43.39;65.34;;
48967;Laerm;46511;53.148;8.204;2023-12-07T05:45:39;50.09;43.19;63.23;;
48967;Laerm;46511;53.148;8.204;2023-12-07T05:48:12;45.52;43.34;62.85;;
48967;Laerm;46511;53.148;8.204;2023-12-07T05:50:43;56.21;43.19;69.62;;
48967;Laerm;46511;53.148;8.204;2023-12-07T05:53:14;54.75;43.49;66.27;;
48967;Laerm;46511;53.148;8.204;2023-12-07T05:55:46;57.89;44.19;68.91;;
48967;Laerm;46511;53.148;8.204;2023-12-07T05:58:17;54.67;44.01;65.73;;
48967;Laerm;46511;53.148;8.204;2023-12-07T06:00:44;56.79;43.90;70.58;;
48967;Laerm;46511;53.148;8.204;2023-12-07T06:03:18;51.92;43.77;64.52;;
48967;Laerm;46511;53.148;8.204;2023-12-07T06:05:49;54.75;43.44;68.63;;
48967;Laerm;46511;53.148;8.204;2023-12-07T06:08:20;56.18;44.11;68.71;;
48967;Laerm;46511;53.148;8.204;2023-12-07T06:10:51;54.46;44.15;67.83;;
48967;Laerm;46511;53.148;8.204;2023-12-07T06:13:18;55.78;43.90;66.67;;
48967;Laerm;46511;53.148;8.204;2023-12-07T06:15:49;53.95;43.99;65.13;;
48967;Laerm;46511;53.148;8.204;2023-12-07T06:18:20;53.12;44.27;64.85;;
48967;Laerm;46511;53.148;8.204;2023-12-07T06:20:52;56.65;44.27;65.84;;
48967;Laerm;46511;53.148;8.204;2023-12-07T06:23:23;55.69;43.81;66.28;;
48967;Laerm;46511;53.148;8.204;2023-12-07T06:25:54;54.96;43.99;68.21;;
48967;Laerm;46511;53.148;8.204;2023-12-07T06:28:26;58.98;45.04;68.66;;
48967;Laerm;46511;53.148;8.204;2023-12-07T06:31:04;57.40;51.27;65.69;;
48967;Laerm;46511;53.148;8.204;2023-12-07T06:33:35;56.43;45.94;64.91;;
48967;Laerm;46511;53.148;8.204;2023-12-07T06:36:07;58.72;45.39;67.63;;
48967;Laerm;46511;53.148;8.204;2023-12-07T06:38:38;57.46;44.23;69.17;;
48967;Laerm;46511;53.148;8.204;2023-12-07T06:41:05;56.07;44.58;68.05;;
48967;Laerm;46511;53.148;8.204;2023-12-07T06:43:36;56.81;45.91;64.70;;
48967;Laerm;46511;53.148;8.204;2023-12-07T06:46:02;57.06;45.01;66.87;;
48967;Laerm;46511;53.148;8.204;2023-12-07T06:48:34;56.92;44.58;73.58;;
48967;Laerm;46511;53.148;8.204;2023-12-07T06:51:05;57.68;44.73;67.43;;
48967;Laerm;46511;53.148;8.204;2023-12-07T06:53:37;58.06;45.51;66.23;;
48967;Laerm;46511;53.148;8.204;2023-12-07T06:56:08;59.77;45.72;68.93;;
48967;Laerm;46511;53.148;8.204;2023-12-07T06:58:40;57.99;45.66;66.53;;
48967;Laerm;46511;53.148;8.204;2023-12-07T07:01:13;57.42;45.30;67.00;;
48967;Laerm;46511;53.148;8.204;2023-12-07T07:03:44;56.99;45.04;65.92;;
48967;Laerm;46511;53.148;8.204;2023-12-07T07:06:10;59.32;44.19;68.11;;
48967;Laerm;46511;53.148;8.204;2023-12-07T07:08:42;53.80;45.04;67.67;;
48967;Laerm;46511;53.148;8.204;2023-12-07T07:11:13;57.88;44.39;74.52;;
48967;Laerm;46511;53.148;8.204;2023-12-07T07:13:46;57.85;46.57;66.98;;
48967;Laerm;46511;53.148;8.204;2023-12-07T07:16:13;58.30;46.43;68.90;;
48967;Laerm;46511;53.148;8.204;2023-12-07T07:18:47;56.17;44.51;69.31;;
48967;Laerm;46511;53.148;8.204;2023-12-07T07:21:18;57.68;44.35;66.59;;
48967;Laerm;46511;53.148;8.204;2023-12-07T07:23:51;58.27;44.31;69.68;;
48967;Laerm;46511;53.148;8.204;2023-12-07T07:26:22;57.29;43.94;68.73;;
48967;Laerm;46511;53.148;8.204;2023-12-07T07:28:53;55.69;43.72;69.19;;
48967;Laerm;46511;53.148;8.204;2023-12-07T07:31:20;54.88;43.54;64.84;;
48967;Laerm;46511;53.148;8.204;2023-12-07T07:33:51;58.99;43.44;67.28;;
48967;Laerm;46511;53.148;8.204;2023-12-07T07:36:23;58.01;43.90;69.79;;
48967;Laerm;46511;53.148;8.204;2023-12-07T07:38:49;56.63;44.69;67.71;;
48967;Laerm;46511;53.148;8.204;2023-12-07T07:41:20;59.31;44.80;69.78;;
48967;Laerm;46511;53.148;8.204;2023-12-07T07:43:52;57.97;45.23;68.80;;
48967;Laerm;46511;53.148;8.204;2023-12-07T07:46:24;56.02;44.15;67.62;;
48967;Laerm;46511;53.148;8.204;2023-12-07T07:48:56;55.57;44.31;68.40;;
48967;Laerm;46511;53.148;8.204;2023-12-07T07:51:27;52.31;44.31;63.45;;
48967;Laerm;46511;53.148;8.204;2023-12-07T07:53:53;56.09;44.19;68.29;;
48967;Laerm;46511;53.148;8.204;2023-12-07T07:56:25;55.57;43.68;66.09;;
48967;Laerm;46511;53.148;8.204;2023-12-07T07:58:51;58.72;44.35;71.57;;
48967;Laerm;46511;53.148;8.204;2023-12-07T08:01:22;55.02;43.44;64.41;;
48967;Laerm;46511;53.148;8.204;2023-12-07T08:03:54;53.57;43.19;64.69;;
48967;Laerm;46511;53.148;8.204;2023-12-07T08:06:25;55.65;43.99;68.82;;
48967;Laerm;46511;53.148;8.204;2023-12-07T08:08:52;58.65;43.68;69.65;;
48967;Laerm;46511;53.148;8.204;2023-12-07T08:11:23;57.37;43.54;69.05;;
48967;Laerm;46511;53.148;8.204;2023-12-07T08:13:55;56.23;43.09;66.10;;
48967;Laerm;46511;53.148;8.204;2023-12-07T08:16:21;57.60;43.99;70.55;;
48967;Laerm;46511;53.148;8.204;2023-12-07T08:18:53;55.34;43.68;68.94;;
48967;Laerm;46511;53.148;8.204;2023-12-07T08:21:23;62.06;43.81;78.95;;
48967;Laerm;46511;53.148;8.204;2023-12-07T08:23:55;58.52;43.44;69.77;;
48967;Laerm;46511;53.148;8.204;2023-12-07T08:26:21;58.12;43.34;71.86;;
48967;Laerm;46511;53.148;8.204;2023-12-07T08:28:53;65.66;47.74;81.20;;
48967;Laerm;46511;53.148;8.204;2023-12-07T08:31:25;55.89;43.77;73.78;;
48967;Laerm;46511;53.148;8.204;2023-12-07T08:33:56;61.91;44.52;74.59;;
48967;Laerm;46511;53.148;8.204;2023-12-07T08:36:28;57.33;44.31;65.75;;
48967;Laerm;46511;53.148;8.204;2023-12-07T08:38:59;56.88;43.14;68.55;;
48967;Laerm;46511;53.148;8.204;2023-12-07T08:41:30;56.86;44.07;66.26;;
48967;Laerm;46511;53.148;8.204;2023-12-07T08:44:02;56.07;43.77;68.53;;
48967;Laerm;46511;53.148;8.204;2023-12-07T08:46:33;55.86;43.81;67.21;;
48967;Laerm;46511;53.148;8.204;2023-12-07T08:49:00;58.88;45.94;67.41;;
48967;Laerm;46511;53.148;8.204;2023-12-07T08:51:32;54.40;43.54;67.09;;
48967;Laerm;46511;53.148;8.204;2023-12-07T08:54:03;58.24;43.72;68.77;;
48967;Laerm;46511;53.148;8.204;2023-12-07T08:56:36;56.00;43.77;68.20;;
48967;Laerm;46511;53.148;8.204;2023-12-07T08:59:07;57.66;43.94;71.36;;
48967;Laerm;46511;53.148;8.204;2023-12-07T09:01:34;58.21;43.44;72.41;;
48967;Laerm;46511;53.148;8.204;2023-12-07T09:04:05;58.96;44.19;69.08;;
48967;Laerm;46511;53.148;8.204;2023-12-07T09:06:37;56.22;43.39;72.03;;
48967;Laerm;46511;53.148;8.204;2023-12-07T09:09:09;55.86;43.63;66.51;;
48967;Laerm;46511;53.148;8.204;2023-12-07T09:11:40;54.52;43.54;66.96;;
48967;Laerm;46511;53.148;8.204;2023-12-07T09:14:11;52.95;43.49;66.34;;
48967;Laerm;46511;53.148;8.204;2023-12-07T09:16:44;53.22;43.39;66.03;;
48967;Laerm;46511;53.148;8.204;2023-12-07T09:19:16;57.49;44.07;67.65;;
48967;Laerm;46511;53.148;8.204;2023-12-07T09:21:47;56.42;44.39;68.48;;
48967;Laerm;46511;53.148;8.204;2023-12-07T09:24:19;56.46;43.34;68.25;;
48967;Laerm;46511;53.148;8.204;2023-12-07T09:26:53;54.12;43.39;63.70;;
48967;Laerm;46511;53.148;8.204;2023-12-07T09:29:24;55.35;43.44;64.78;;
48967;Laerm;46511;53.148;8.204;2023-12-07T09:31:56;57.28;43.77;67.52;;
48967;Laerm;46511;53.148;8.204;2023-12-07T09:34:29;57.44;43.58;68.54;;
48967;Laerm;46511;53.148;8.204;2023-12-07T09:37:10;54.42;43.63;65.31;;
48967;Laerm;46511;53.148;8.204;2023-12-07T09:39:42;59.18;44.39;68.13;;
48967;Laerm;46511;53.148;8.204;2023-12-07T09:42:13;59.09;44.58;67.66;;
48967;Laerm;46511;53.148;8.204;2023-12-07T09:44:39;56.99;43.68;66.34;;
48967;Laerm;46511;53.148;8.204;2023-12-07T09:47:11;52.61;43.63;65.89;;
48967;Laerm;46511;53.148;8.204;2023-12-07T09:49:43;58.68;44.87;71.80;;
48967;Laerm;46511;53.148;8.204;2023-12-07T09:52:15;61.68;46.95;79.48;;
48967;Laerm;46511;53.148;8.204;2023-12-07T09:54:46;57.07;43.72;66.69;;
48967;Laerm;46511;53.148;8.204;2023-12-07T09:57:18;58.64;43.19;66.20;;
48967;Laerm;46511;53.148;8.204;2023-12-07T09:59:49;52.55;43.19;64.94;;
48967;Laerm;46511;53.148;8.204;2023-12-07T10:02:21;56.68;43.49;68.47;;
48967;Laerm;46511;53.148;8.204;2023-12-07T10:05:06;58.08;43.04;74.68;;
48967;Laerm;46511;53.148;8.204;2023-12-07T10:07:40;56.45;43.14;66.73;;
48967;Laerm;46511;53.148;8.204;2023-12-07T10:10:12;55.27;43.49;67.59;;
48967;Laerm;46511;53.148;8.204;2023-12-07T10:12:54;53.02;43.19;65.26;;
48967;Laerm;46511;53.148;8.204;2023-12-07T10:15:25;55.91;43.19;65.65;;
48967;Laerm;46511;53.148;8.204;2023-12-07T10:17:58;56.86;43.63;70.49;;
48967;Laerm;46511;53.148;8.204;2023-12-07T10:20:30;57.16;43.99;69.98;;
48967;Laerm;46511;53.148;8.204;2023-12-07T10:23:06;56.85;44.23;65.62;;
48967;Laerm;46511;53.148;8.204;2023-12-07T10:25:40;55.21;44.43;66.01;;
48967;Laerm;46511;53.148;8.204;2023-12-07T10:28:12;57.93;45.54;72.46;;
48967;Laerm;46511;53.148;8.204;2023-12-07T10:30:42;58.36;44.15;68.91;;
48967;Laerm;46511;53.148;8.204;2023-12-07T10:33:15;57.01;43.00;70.13;;
48967;Laerm;46511;53.148;8.204;2023-12-07T10:35:42;55.53;43.86;70.58;;
48967;Laerm;46511;53.148;8.204;2023-12-07T10:38:14;57.29;44.15;66.86;;
48967;Laerm;46511;53.148;8.204;2023-12-07T10:40:46;58.23;44.23;68.91;;
48967;Laerm;46511;53.148;8.204;2023-12-07T10:43:19;58.07;43.72;68.95;;
48967;Laerm;46511;53.148;8.204;2023-12-07T10:45:51;58.53;44.31;69.44;;
48967;Laerm;46511;53.148;8.204;2023-12-07T10:48:25;54.96;43.54;69.69;;
48967;Laerm;46511;53.148;8.204;2023-12-07T10:51:00;55.06;43.09;64.55;;
48967;Laerm;46511;53.148;8.204;2023-12-07T10:53:37;56.85;42.29;67.92;;
48967;Laerm;46511;53.148;8.204;2023-12-07T10:56:15;57.03;43.19;66.75;;
48967;Laerm;46511;53.148;8.204;2023-12-07T10:58:48;55.66;42.76;68.58;;
48967;Laerm;46511;53.148;8.204;2023-12-07T11:01:21;56.56;43.04;66.70;;
48967;Laerm;46511;53.148;8.204;2023-12-07T11:03:53;57.61;42.98;67.92;;
48967;Laerm;46511;53.148;8.204;2023-12-07T11:06:25;58.07;42.53;69.09;;
48967;Laerm;46511;53.148;8.204;2023-12-07T11:08:59;58.12;43.04;67.10;;
48967;Laerm;46511;53.148;8.204;2023-12-07T11:11:37;59.04;45.20;67.34;;
48967;Laerm;46511;53.148;8.204;2023-12-07T11:14:14;58.12;43.24;68.32;;
48967;Laerm;46511;53.148;8.204;2023-12-07T11:16:48;57.66;42.93;69.71;;
48967;Laerm;46511;53.148;8.204;2023-12-07T11:22:12;55.39;43.09;66.10;;
48967;Laerm;46511;53.148;8.204;2023-12-07T11:24:57;53.57;42.88;66.03;;
48967;Laerm;46511;53.148;8.204;2023-12-07T11:27:32;56.11;42.30;66.34;;
48967;Laerm;46511;53.148;8.204;2023-12-07T11:30:03;57.45;43.09;68.51;;
48967;Laerm;46511;53.148;8.204;2023-12-07T11:32:35;53.74;42.76;64.56;;
48967;Laerm;46511;53.148;8.204;2023-12-07T11:35:11;58.37;43.44;67.47;;
48967;Laerm;46511;53.148;8.204;2023-12-07T11:38:09;57.22;43.94;69.72;;
48967;Laerm;46511;53.148;8.204;2023-12-07T11:40:43;58.17;43.99;67.08;;
48967;Laerm;46511;53.148;8.204;2023-12-07T11:43:18;58.03;42.65;65.81;;
48967;Laerm;46511;53.148;8.204;2023-12-07T11:46:01;57.75;42.82;73.74;;
48967;Laerm;46511;53.148;8.204;2023-12-07T11:48:33;56.28;44.65;66.33;;
48967;Laerm;46511;53.148;8.204;2023-12-07T11:51:00;58.18;44.19;67.34;;
48967;Laerm;46511;53.148;8.204;2023-12-07T11:53:29;60.40;43.68;73.36;;
48967;Laerm;46511;53.148;8.204;2023-12-07T11:56:05;56.57;42.59;67.73;;
48967;Laerm;46511;53.148;8.204;2023-12-07T11:58:37;57.67;42.90;69.76;;
48967;Laerm;46511;53.148;8.204;2023-12-07T12:01:09;58.33;42.59;67.13;;
48967;Laerm;46511;53.148;8.204;2023-12-07T12:03:40;55.02;42.22;63.42;;
48967;Laerm;46511;53.148;8.204;2023-12-07T12:06:12;57.41;42.41;70.32;;
48967;Laerm;46511;53.148;8.204;2023-12-07T12:08:43;58.85;42.47;71.17;;
48967;Laerm;46511;53.148;8.204;2023-12-07T12:11:14;56.24;43.54;66.91;;
48967;Laerm;46511;53.148;8.204;2023-12-07T12:13:41;56.51;44.51;67.16;;
48967;Laerm;46511;53.148;8.204;2023-12-07T12:16:12;59.80;48.40;68.57;;
48967;Laerm;46511;53.148;8.204;2023-12-07T12:18:45;58.91;43.49;67.31;;
48967;Laerm;46511;53.148;8.204;2023-12-07T12:21:11;55.48;42.09;71.48;;
48967;Laerm;46511;53.148;8.204;2023-12-07T12:23:37;54.68;42.53;65.92;;
48967;Laerm;46511;53.148;8.204;2023-12-07T12:26:10;58.44;42.59;68.31;;
48967;Laerm;46511;53.148;8.204;2023-12-07T12:28:43;57.72;43.14;66.88;;
48967;Laerm;46511;53.148;8.204;2023-12-07T12:31:14;59.04;44.89;67.64;;
48967;Laerm;46511;53.148;8.204;2023-12-07T12:33:41;55.00;42.03;68.37;;
48967;Laerm;46511;53.148;8.204;2023-12-07T12:36:12;57.24;42.35;69.55;;
48967;Laerm;46511;53.148;8.204;2023-12-07T12:38:46;58.30;42.88;71.34;;
48967;Laerm;46511;53.148;8.204;2023-12-07T12:41:20;55.79;42.59;68.78;;
48967;Laerm;46511;53.148;8.204;2023-12-07T12:43:52;56.99;42.65;67.14;;
48967;Laerm;46511;53.148;8.204;2023-12-07T12:46:23;56.68;41.53;71.87;;
48967;Laerm;46511;53.148;8.204;2023-12-07T12:48:58;54.89;42.88;65.28;;
48967;Laerm;46511;53.148;8.204;2023-12-07T12:51:30;57.60;41.82;67.86;;
48967;Laerm;46511;53.148;8.204;2023-12-07T12:54:03;55.00;41.46;67.78;;
48967;Laerm;46511;53.148;8.204;2023-12-07T12:56:34;56.91;43.58;68.76;;
48967;Laerm;46511;53.148;8.204;2023-12-07T12:59:06;57.40;42.22;71.80;;
48967;Laerm;46511;53.148;8.204;2023-12-07T13:01:37;66.67;42.16;93.47;;
48967;Laerm;46511;53.148;8.204;2023-12-07T13:04:10;58.61;42.88;68.72;;
48967;Laerm;46511;53.148;8.204;2023-12-07T13:06:39;55.88;42.22;65.85;;
48967;Laerm;46511;53.148;8.204;2023-12-07T13:09:11;57.67;43.99;66.99;;
48967;Laerm;46511;53.148;8.204;2023-12-07T13:11:42;56.63;41.89;66.08;;
48967;Laerm;46511;53.148;8.204;2023-12-07T13:14:08;57.56;41.22;70.05;;
48967;Laerm;46511;53.148;8.204;2023-12-07T13:16:40;56.59;41.61;68.51;;
48967;Laerm;46511;53.148;8.204;2023-12-07T13:19:06;55.79;42.16;66.30;;
48967;Laerm;46511;53.148;8.204;2023-12-07T13:21:38;56.61;42.98;64.07;;
48967;Laerm;46511;53.148;8.204;2023-12-07T13:24:09;57.88;42.00;66.85;;
48967;Laerm;46511;53.148;8.204;2023-12-07T13:26:44;54.74;41.68;70.21;;
48967;Laerm;46511;53.148;8.204;2023-12-07T13:29:10;59.35;42.65;69.64;;
48967;Laerm;46511;53.148;8.204;2023-12-07T13:31:41;58.44;42.16;70.99;;
48967;Laerm;46511;53.148;8.204;2023-12-07T13:34:08;56.53;42.98;66.98;;
48967;Laerm;46511;53.148;8.204;2023-12-07T13:36:40;55.07;41.82;68.89;;
48967;Laerm;46511;53.148;8.204;2023-12-07T13:39:11;57.83;42.82;67.24;;
48967;Laerm;46511;53.148;8.204;2023-12-07T13:41:44;53.55;42.03;67.47;;
48967;Laerm;46511;53.148;8.204;2023-12-07T13:44:16;56.97;41.30;72.76;;
48967;Laerm;46511;53.148;8.204;2023-12-07T13:46:48;59.19;43.39;69.11;;
48967;Laerm;46511;53.148;8.204;2023-12-07T13:49:15;58.27;42.82;73.06;;
48967;Laerm;46511;53.148;8.204;2023-12-07T13:51:46;59.68;43.90;70.52;;
48967;Laerm;46511;53.148;8.204;2023-12-07T13:54:12;57.58;42.03;68.33;;
48967;Laerm;46511;53.148;8.204;2023-12-07T13:56:44;59.17;43.86;73.19;;
48967;Laerm;46511;53.148;8.204;2023-12-07T13:59:11;55.47;42.29;66.38;;
48967;Laerm;46511;53.148;8.204;2023-12-07T14:01:39;54.74;42.53;68.51;;
48967;Laerm;46511;53.148;8.204;2023-12-07T14:04:10;58.27;41.61;73.77;;
48967;Laerm;46511;53.148;8.204;2023-12-07T14:06:42;55.02;42.09;67.13;;
48967;Laerm;46511;53.148;8.204;2023-12-07T14:09:13;57.48;41.96;67.87;;
48967;Laerm;46511;53.148;8.204;2023-12-07T14:11:44;58.37;41.68;68.02;;
48967;Laerm;46511;53.148;8.204;2023-12-07T14:14:16;58.68;42.59;73.92;;